createdAt,value
2022-09-12T00:04:45.715Z,99980.31
2022-09-12T00:09:48.743Z,99978.35
2022-09-12T00:14:51.568Z,99971.12
2022-09-12T00:19:55.260Z,99967.34
2022-09-12T00:24:58.076Z,99962.94
2022-09-12T00:30:00.953Z,99958.86
2022-09-12T00:35:04.289Z,99954.42
2022-09-12T00:40:07.478Z,99959.73
2022-09-12T00:45:23.525Z,99955.38
2022-09-12T00:50:26.575Z,99949.40
2022-09-12T00:55:43.957Z,99956.19
2022-09-12T01:00:47.657Z,99957.95
2022-09-12T01:06:18.331Z,99960.77
2022-09-12T01:11:22.583Z,99956.61
2022-09-12T01:16:25.794Z,99951.73
2022-09-12T01:21:31.199Z,99952.27
2022-09-12T01:27:08.024Z,99953.52
2022-09-12T01:32:24.553Z,99949.95
2022-09-12T01:37:49.065Z,99950.54
2022-09-12T01:43:01.505Z,99953.61
2022-09-12T01:48:20.465Z,99952.27
2022-09-12T01:53:28.527Z,99957.04
2022-09-12T01:58:42.123Z,99957.85
2022-09-12T02:04:00.002Z,99951.91
2022-09-12T02:09:12.891Z,99948.69
2022-09-12T02:14:25.918Z,99949.17
2022-09-12T02:19:34.241Z,99956.52
2022-09-12T02:24:40.545Z,99952.52
2022-09-12T02:29:45.096Z,99961.02
2022-09-12T02:35:07.496Z,99966.11
2022-09-12T02:40:10.527Z,99961.76
2022-09-12T02:45:13.726Z,99964.89
2022-09-12T02:50:17.358Z,99967.54
2022-09-12T02:55:20.404Z,99969.77
2022-09-12T03:00:25.002Z,99973.98
2022-09-12T03:05:47.435Z,99981.33
2022-09-12T03:11:02.161Z,99987.33
2022-09-12T03:16:05.416Z,99994.41
2022-09-12T03:21:30.057Z,99991.48
2022-09-12T03:26:40.032Z,99996.10
2022-09-12T03:31:55.356Z,100006.43
2022-09-12T03:36:58.420Z,100011.17
2022-09-12T03:42:01.221Z,100013.11
2022-09-12T03:47:06.927Z,100020.98
2022-09-12T03:52:12.275Z,100019.78
2022-09-12T03:57:16.902Z,100021.63
2022-09-12T04:02:20.154Z,100023.19
2022-09-12T04:07:23.086Z,100020.29
2022-09-12T04:12:26.095Z,100021.09
2022-09-12T04:17:29.045Z,100031.47
2022-09-12T04:22:32.747Z,100035.98
2022-09-12T04:27:35.621Z,100040.05
2022-09-12T04:32:38.414Z,100048.04
2022-09-12T04:37:41.248Z,100052.35
2022-09-12T04:42:44.001Z,100052.83
2022-09-12T04:47:46.884Z,100059.98
2022-09-12T04:52:53.974Z,100061.85
2022-09-12T04:57:56.742Z,100064.57
2022-09-12T05:02:59.496Z,100063.23
2022-09-12T05:08:02.544Z,100060.85
2022-09-12T05:13:05.335Z,100060.77
2022-09-12T05:18:08.160Z,100058.98
2022-09-12T05:23:10.948Z,100058.52
2022-09-12T05:28:13.761Z,100060.73
2022-09-12T05:33:16.616Z,100068.59
2022-09-12T05:38:19.509Z,100072.31
2022-09-12T05:43:22.414Z,100077.83
2022-09-12T05:48:25.179Z,100080.23
2022-09-12T05:53:29.299Z,100088.91
2022-09-12T05:58:32.701Z,100092.88
2022-09-12T06:03:54.761Z,100096.15
2022-09-12T06:14:27.100Z,100100.64
2022-09-12T06:19:29.962Z,100105.94
2022-09-12T06:45:54.557Z,100120.60
2022-09-12T06:51:02.175Z,100132.11
2022-09-12T07:01:38.308Z,100137.04
2022-09-12T07:06:44.176Z,100140.67
2022-09-12T07:11:47.412Z,100143.92
2022-09-12T07:16:50.245Z,100149.66
2022-09-12T07:21:56.594Z,100152.89
2022-09-12T07:27:01.472Z,100158.48
2022-09-12T07:32:05.716Z,100166.21
2022-09-12T07:37:09.371Z,100164.13
2022-09-12T07:42:19.400Z,100169.71
2022-09-12T07:47:33.747Z,100176.27
2022-09-12T07:52:41.459Z,100186.90
2022-09-12T07:57:44.368Z,100190.92
2022-09-12T08:02:51.699Z,100190.30
2022-09-12T08:07:57.657Z,100190.20
2022-09-12T08:13:00.728Z,100190.59
2022-09-12T08:18:03.408Z,100193.65
2022-09-12T08:23:07.879Z,100193.04
2022-09-12T08:28:10.703Z,100192.39
2022-09-12T08:33:18.134Z,100198.52
2022-09-12T08:38:21.000Z,100205.36
2022-09-12T08:43:31.130Z,100204.02
2022-09-12T08:48:42.393Z,100203.21
2022-09-12T08:53:49.452Z,100203.14
2022-09-12T08:58:56.739Z,100200.72
2022-09-12T09:04:10.404Z,100200.59
2022-09-12T09:09:19.528Z,100204.21
2022-09-12T09:15:06.018Z,100205.98
2022-09-12T09:20:28.997Z,100209.69
2022-09-12T09:25:41.946Z,100211.20
2022-09-12T09:30:47.041Z,100205.77
2022-09-12T09:35:56.946Z,100209.31
2022-09-12T09:41:19.944Z,100206.30
2022-09-12T09:46:22.832Z,100208.56
2022-09-12T09:51:33.062Z,100214.72
2022-09-12T09:56:37.442Z,100207.65
2022-09-12T10:01:57.608Z,100219.66
2022-09-12T10:07:02.723Z,100219.39
2022-09-12T10:12:27.296Z,100221.96
2022-09-12T10:17:39.389Z,100223.38
2022-09-12T10:22:47.791Z,100219.61
2022-09-12T10:28:00.245Z,100216.89
2022-09-12T10:33:11.806Z,100221.60
2022-09-12T10:38:24.521Z,100218.79
2022-09-12T10:43:29.841Z,100223.20
2022-09-12T10:48:33.339Z,100225.10
2022-09-12T10:53:47.522Z,100230.24
2022-09-12T10:59:09.208Z,100229.80
2022-09-12T11:04:30.380Z,100224.89
2022-09-12T11:09:39.237Z,100223.46
2022-09-12T11:15:03.255Z,100223.98
2022-09-12T11:20:20.842Z,100228.23
2022-09-12T11:26:01.802Z,100225.20
2022-09-12T11:31:23.242Z,100228.71
2022-09-12T11:36:47.658Z,100225.46
2022-09-12T11:42:05.660Z,100225.91
2022-09-12T11:47:12.546Z,100221.26
2022-09-12T11:52:25.177Z,100230.12
2022-09-12T11:57:53.993Z,100233.53
2022-09-12T12:03:13.871Z,100233.20
2022-09-12T12:08:16.923Z,100238.21
2022-09-12T12:13:22.864Z,100232.60
2022-09-12T12:18:28.319Z,100232.74
2022-09-12T12:23:35.025Z,100236.47
2022-09-12T12:28:50.467Z,100246.23
2022-09-12T12:33:55.605Z,100250.30
2022-09-12T12:38:59.918Z,100242.60
2022-09-12T12:44:41.103Z,100234.10
2022-09-12T12:49:52.062Z,100227.85
2022-09-12T12:54:58.896Z,100226.34
2022-09-12T13:00:20.108Z,100231.55
2022-09-12T13:05:25.719Z,100234.68
2022-09-12T13:10:29.982Z,100238.20
2022-09-12T13:15:35.911Z,100240.48
2022-09-12T13:20:51.055Z,100244.22
2022-09-12T13:25:56.487Z,100244.29
2022-09-12T13:31:24.748Z,100236.44
2022-09-12T13:36:42.829Z,100228.98
2022-09-12T13:42:10.778Z,100230.44
2022-09-12T13:47:30.893Z,100237.25
2022-09-12T13:52:38.094Z,100238.52
2022-09-12T13:57:42.115Z,100244.70
2022-09-12T14:02:45.557Z,100245.39
2022-09-12T14:07:52.621Z,100242.92
2022-09-12T14:12:57.356Z,100246.41
2022-09-12T14:18:03.313Z,100252.88
2022-09-12T14:23:27.562Z,100250.96
2022-09-12T14:28:31.395Z,100246.77
2022-09-12T14:33:55.499Z,100245.52
2022-09-12T14:39:05.517Z,100246.30
2022-09-12T14:44:16.596Z,100252.63
2022-09-12T14:49:36.814Z,100257.35
2022-09-12T14:54:40.396Z,100260.75
2022-09-12T14:59:43.201Z,100255.92
2022-09-12T15:05:09.175Z,100258.00
2022-09-12T15:10:36.757Z,100260.50
2022-09-12T15:15:41.768Z,100258.70
2022-09-12T15:22:24.641Z,100252.16
2022-09-12T15:27:27.517Z,100250.70
2022-09-12T15:32:30.623Z,100244.33
2022-09-12T15:37:33.443Z,100237.55
2022-09-12T15:42:36.289Z,100245.27
2022-09-12T15:47:39.132Z,100251.38
2022-09-12T15:52:42.810Z,100250.81
2022-09-12T15:57:45.971Z,100254.43
2022-09-12T16:02:51.745Z,100254.86
2022-09-12T16:07:55.806Z,100259.27
2022-09-12T16:12:59.838Z,100266.05
2022-09-12T16:18:02.635Z,100270.02
2022-09-12T16:23:05.457Z,100276.85
2022-09-12T16:28:08.445Z,100276.20
2022-09-12T16:33:12.355Z,100274.66
2022-09-12T16:38:15.227Z,100277.56
2022-09-12T16:43:18.325Z,100279.66
2022-09-12T16:48:21.057Z,100282.58
2022-09-12T16:53:23.860Z,100278.97
2022-09-12T16:58:27.268Z,100280.08
2022-09-12T17:03:30.705Z,100277.34
2022-09-12T17:08:36.312Z,100279.30
2022-09-12T17:14:03.403Z,100278.23
2022-09-12T17:19:05.758Z,100279.20
2022-09-12T17:24:09.055Z,100278.86
2022-09-12T17:29:14.031Z,100279.11
2022-09-12T17:34:18.047Z,100278.81
2022-09-12T17:39:20.912Z,100277.82
2022-09-12T17:44:24.457Z,100287.35
2022-09-12T17:49:27.610Z,100291.27
2022-09-12T17:54:31.220Z,100293.73
2022-09-12T17:59:34.006Z,100292.59
2022-09-12T18:04:37.544Z,100299.52
2022-09-12T18:09:41.175Z,100300.91
2022-09-12T18:14:44.018Z,100299.39
2022-09-12T18:19:52.876Z,100297.20
2022-09-12T18:24:56.594Z,100296.13
2022-09-12T18:30:20.220Z,100302.36
2022-09-12T18:35:22.227Z,100299.73
2022-09-12T18:40:25.999Z,100302.66
2022-09-12T18:45:28.851Z,100302.19
2022-09-12T18:50:32.818Z,100299.36
2022-09-12T18:55:35.604Z,100296.16
2022-09-12T19:00:41.034Z,100294.45
2022-09-12T19:05:43.989Z,100289.29
2022-09-12T19:10:55.105Z,100291.09
2022-09-12T19:15:59.770Z,100289.98
2022-09-12T19:21:04.794Z,100294.32
2022-09-12T19:26:09.618Z,100294.02
2022-09-12T19:31:16.079Z,100296.63
2022-09-12T19:36:43.959Z,100291.27
2022-09-12T19:41:45.254Z,100281.88
2022-09-12T19:46:48.221Z,100285.70
2022-09-12T19:51:51.136Z,100280.43
2022-09-12T19:56:54.004Z,100277.13
2022-09-12T20:01:57.012Z,100272.20
2022-09-12T20:06:59.938Z,100269.41
2022-09-12T20:12:02.715Z,100269.36
2022-09-12T20:17:06.629Z,100264.05
2022-09-12T20:22:09.994Z,100263.87
2022-09-12T20:27:12.818Z,100263.17
2022-09-12T20:32:16.139Z,100262.77
2022-09-12T20:37:19.011Z,100263.55
2022-09-12T20:42:21.814Z,100263.17
2022-09-12T20:47:24.629Z,100261.20
2022-09-12T20:52:27.411Z,100258.52
2022-09-12T20:57:30.222Z,100256.10
2022-09-12T21:02:33.120Z,100248.89
2022-09-12T21:07:35.962Z,100248.10
2022-09-12T21:12:38.835Z,100241.71
2022-09-12T21:17:41.622Z,100235.80
2022-09-12T21:22:44.531Z,100238.00
2022-09-12T21:27:47.593Z,100247.29
2022-09-12T21:32:50.412Z,100248.59
2022-09-12T21:37:53.376Z,100250.90
2022-09-12T21:42:56.656Z,100241.80
2022-09-12T21:47:59.414Z,100240.41
2022-09-12T21:53:02.311Z,100237.29
2022-09-12T21:58:05.130Z,100231.89
2022-09-12T22:03:10.460Z,100228.91
2022-09-12T22:08:13.312Z,100220.48
2022-09-12T22:13:16.120Z,100216.52
2022-09-12T22:18:19.267Z,100218.13
2022-09-12T22:23:40.756Z,100221.59
2022-09-12T22:28:44.416Z,100224.97
2022-09-12T22:33:47.253Z,100222.23
2022-09-12T22:38:50.040Z,100220.77
2022-09-12T22:43:52.949Z,100214.55
2022-09-12T22:48:55.950Z,100219.05
2022-09-12T22:53:59.253Z,100210.97
2022-09-12T22:59:02.127Z,100210.79
2022-09-12T23:04:05.445Z,100204.39
2022-09-12T23:09:08.131Z,100205.98
2022-09-12T23:14:10.929Z,100204.67
2022-09-12T23:19:13.906Z,100204.34
2022-09-12T23:24:16.909Z,100199.46
2022-09-12T23:29:19.711Z,100191.23
2022-09-12T23:34:22.613Z,100182.98
2022-09-12T23:39:25.473Z,100180.89
2022-09-12T23:44:28.235Z,100177.89
2022-09-12T23:49:31.068Z,100173.77
2022-09-12T23:54:33.804Z,100176.98
2022-09-12T23:59:37.082Z,100177.30
